Time;durP1;ratioP1;P1;durP2;ratioP2;P2;SDS_P1;SDS_P2;PMS_P1;PMS_P2;Temp;Humidity;BMP_temperature;BMP_pressure;BME280_temperature;BME280_humidity;BME280_pressure;Samples;Min_cycle;Max_cycle;Signal;HPM_P1;HPM_P2
2023/06/09 00:02:17;;;;;;;0.20;0.10;;;;;;;;;;5023573;28;20048;-83
2023/06/09 00:04:44;;;;;;;0.68;0.28;;;;;;;;;;5021438;28;20172;-80
2023/06/09 00:07:10;;;;;;;0.30;0.30;;;;;;;;;;5003007;28;20038;-85
2023/06/09 00:09:36;;;;;;;0.20;0.10;;;;;;;;;;4999556;28;20043;-82
2023/06/09 00:12:02;;;;;;;0.20;0.10;;;;;;;;;;5004812;28;20071;-82
2023/06/09 00:14:29;;;;;;;0.20;0.20;;;;;;;;;;5003724;28;20033;-83
2023/06/09 00:16:55;;;;;;;0.30;0.20;;;;;;;;;;5000830;28;20533;-84
2023/06/09 00:19:24;;;;;;;0.20;0.10;;;;;;;;;;5019952;28;20399;-84
2023/06/09 00:21:50;;;;;;;0.30;0.20;;;;;;;;;;5022462;28;20073;-82
2023/06/09 00:24:23;;;;;;;0.20;0.10;;;;;;;;;;5002762;28;20044;-85
2023/06/09 00:26:52;;;;;;;0.20;0.20;;;;;;;;;;4998049;28;20095;-80
2023/06/09 00:29:21;;;;;;;0.20;0.10;;;;;;;;;;5001148;28;20405;-83
2023/06/09 00:31:47;;;;;;;0.40;0.20;;;;;;;;;;5021608;28;20042;-81
2023/06/09 00:34:15;;;;;;;0.22;0.20;;;;;;;;;;5002034;28;20041;-85
2023/06/09 00:36:41;;;;;;;0.20;0.10;;;;;;;;;;5018359;28;20433;-83
2023/06/09 00:39:08;;;;;;;0.20;0.10;;;;;;;;;;5001702;28;20041;-84
2023/06/09 00:41:41;;;;;;;0.20;0.10;;;;;;;;;;5001495;28;20042;-85
2023/06/09 00:44:12;;;;;;;0.20;0.10;;;;;;;;;;5002172;28;20037;-81
2023/06/09 00:46:38;;;;;;;0.20;0.10;;;;;;;;;;5016933;28;20592;-81
2023/06/09 00:49:09;;;;;;;0.20;0.10;;;;;;;;;;5000741;28;20033;-80
2023/06/09 00:51:36;;;;;;;0.20;0.10;;;;;;;;;;5003768;28;20490;-86
2023/06/09 00:54:02;;;;;;;0.20;0.10;;;;;;;;;;5005621;28;21001;-81
2023/06/09 00:56:30;;;;;;;0.30;0.20;;;;;;;;;;5021079;28;20069;-81
2023/06/09 00:58:56;;;;;;;0.20;0.10;;;;;;;;;;5018112;28;20044;-82
2023/06/09 01:01:22;;;;;;;0.20;0.10;;;;;;;;;;5022551;28;20045;-83
2023/06/09 01:03:48;;;;;;;0.30;0.20;;;;;;;;;;5016207;28;20771;-84
2023/06/09 01:06:30;;;;;;;0.20;0.10;;;;;;;;;;4998864;28;20049;-82
2023/06/09 01:09:04;;;;;;;0.20;0.20;;;;;;;;;;5018221;28;20038;-83
2023/06/09 01:11:37;;;;;;;0.30;0.10;;;;;;;;;;5020541;28;20064;-83
2023/06/09 01:14:13;;;;;;;0.20;0.10;;;;;;;;;;5012309;28;20253;-82
2023/06/09 01:16:42;;;;;;;0.20;0.10;;;;;;;;;;5016286;28;20506;-84
2023/06/09 01:19:15;;;;;;;0.20;0.10;;;;;;;;;;5017699;28;20033;-81
2023/06/09 01:21:46;;;;;;;0.20;0.10;;;;;;;;;;5003871;28;20569;-82
2023/06/09 01:24:30;;;;;;;0.20;0.10;;;;;;;;;;4999653;28;20049;-81
2023/06/09 01:26:59;;;;;;;0.85;0.85;;;;;;;;;;5021487;28;20517;-84
2023/06/09 01:29:26;;;;;;;0.20;0.10;;;;;;;;;;5003774;28;20080;-85
2023/06/09 01:31:52;;;;;;;0.20;0.10;;;;;;;;;;5021300;28;20038;-86
2023/06/09 01:34:18;;;;;;;0.20;0.10;;;;;;;;;;5004092;28;20045;-84
2023/06/09 01:36:45;;;;;;;1.33;0.40;;;;;;;;;;5019982;28;20124;-82
2023/06/09 01:39:11;;;;;;;0.20;0.10;;;;;;;;;;5024503;28;20038;-81
2023/06/09 01:41:37;;;;;;;0.20;0.10;;;;;;;;;;5021850;28;20051;-86
2023/06/09 01:44:04;;;;;;;0.20;0.10;;;;;;;;;;5005414;28;20037;-84
2023/06/09 01:46:30;;;;;;;0.20;0.20;;;;;;;;;;5006839;28;20125;-86
2023/06/09 01:49:02;;;;;;;0.20;0.10;;;;;;;;;;5020385;28;20037;-82
2023/06/09 01:51:31;;;;;;;0.20;0.10;;;;;;;;;;5022324;28;20378;-85
2023/06/09 01:54:01;;;;;;;0.20;0.10;;;;;;;;;;5001505;28;20053;-84
2023/06/09 01:56:37;;;;;;;0.20;0.10;;;;;;;;;;5037967;28;20144;-81
2023/06/09 01:59:06;;;;;;;0.50;0.30;;;;;;;;;;5003730;28;20037;-82
2023/06/09 02:01:34;;;;;;;0.20;0.10;;;;;;;;;;5024132;28;20044;-83
2023/06/09 02:04:01;;;;;;;0.20;0.10;;;;;;;;;;5003666;28;20394;-83
2023/06/09 02:06:27;;;;;;;0.20;0.10;;;;;;;;;;5002403;28;20041;-83
2023/06/09 02:08:53;;;;;;;0.20;0.00;;;;;;;;;;5007570;28;20044;-82
2023/06/09 02:11:19;;;;;;;0.20;0.03;;;;;;;;;;5007787;28;20128;-84
2023/06/09 02:13:52;;;;;;;0.20;0.10;;;;;;;;;;5022646;28;20050;-85
2023/06/09 02:16:18;;;;;;;0.20;0.10;;;;;;;;;;5019227;28;20139;-84
2023/06/09 02:18:44;;;;;;;0.20;0.10;;;;;;;;;;5020745;28;20574;-84
2023/06/09 02:21:10;;;;;;;0.20;0.20;;;;;;;;;;5003186;28;20029;-83
2023/06/09 02:23:39;;;;;;;0.20;0.10;;;;;;;;;;5020164;28;20345;-85
2023/06/09 02:26:06;;;;;;;0.20;0.10;;;;;;;;;;5003643;28;20342;-82
2023/06/09 02:28:32;;;;;;;0.20;0.05;;;;;;;;;;5022401;28;20041;-82
2023/06/09 02:30:58;;;;;;;0.20;0.10;;;;;;;;;;5007570;28;20556;-81
2023/06/09 02:33:25;;;;;;;0.20;0.10;;;;;;;;;;5006748;28;20046;-84
2023/06/09 02:35:51;;;;;;;0.20;0.10;;;;;;;;;;5022048;28;20038;-83
2023/06/09 02:38:17;;;;;;;0.20;0.10;;;;;;;;;;4998667;28;20111;-82
2023/06/09 02:40:43;;;;;;;0.20;0.10;;;;;;;;;;5008784;28;20063;-83
2023/06/09 02:43:09;;;;;;;0.32;0.25;;;;;;;;;;5019834;28;20560;-81
2023/06/09 02:45:36;;;;;;;0.20;0.10;;;;;;;;;;5018874;28;20037;-83
2023/06/09 02:48:02;;;;;;;0.20;0.10;;;;;;;;;;5004851;28;20041;-84
2023/06/09 02:50:28;;;;;;;0.20;0.10;;;;;;;;;;5006003;28;20093;-84
2023/06/09 02:52:54;;;;;;;0.20;0.10;;;;;;;;;;5024072;28;20065;-82
2023/06/09 02:55:21;;;;;;;0.68;0.15;;;;;;;;;;5018998;28;20513;-79
2023/06/09 02:57:47;;;;;;;0.20;0.10;;;;;;;;;;5003396;28;20128;-83
2023/06/09 03:00:14;;;;;;;1.55;0.28;;;;;;;;;;5014429;28;20045;-83
2023/06/09 03:02:46;;;;;;;0.20;0.10;;;;;;;;;;5024628;28;20087;-81
2023/06/09 03:05:12;;;;;;;0.20;0.10;;;;;;;;;;5026425;28;20037;-82
2023/06/09 03:07:38;;;;;;;0.28;0.13;;;;;;;;;;5007931;28;20315;-82
2023/06/09 03:10:07;;;;;;;0.20;0.10;;;;;;;;;;5012290;28;20033;-83
2023/06/09 03:12:33;;;;;;;0.20;0.10;;;;;;;;;;5029394;28;20132;-83
2023/06/09 03:14:59;;;;;;;0.20;0.10;;;;;;;;;;5028406;28;20179;-83
2023/06/09 03:17:26;;;;;;;0.20;0.10;;;;;;;;;;5028129;28;20406;-86
2023/06/09 03:19:52;;;;;;;0.20;0.13;;;;;;;;;;5009275;28;20068;-84
2023/06/09 03:22:18;;;;;;;0.43;0.40;;;;;;;;;;5029128;28;20045;-82
2023/06/09 03:24:45;;;;;;;0.20;0.10;;;;;;;;;;5029700;28;20041;-82
2023/06/09 03:27:11;;;;;;;0.20;0.10;;;;;;;;;;5026156;28;20042;-80
2023/06/09 03:29:37;;;;;;;0.20;0.10;;;;;;;;;;5026114;28;20033;-82
2023/06/09 03:32:03;;;;;;;0.20;0.10;;;;;;;;;;5013737;28;20037;-84
2023/06/09 03:34:29;;;;;;;0.20;0.10;;;;;;;;;;5016060;28;20037;-83
2023/06/09 03:36:58;;;;;;;0.20;0.10;;;;;;;;;;5022509;28;20060;-80
2023/06/09 03:39:24;;;;;;;0.20;0.10;;;;;;;;;;5021879;28;20044;-84
2023/06/09 03:41:54;;;;;;;0.20;0.10;;;;;;;;;;5003294;28;20030;-81
2023/06/09 03:44:20;;;;;;;0.20;0.10;;;;;;;;;;5020401;28;20049;-83
2023/06/09 03:46:46;;;;;;;0.20;0.10;;;;;;;;;;5021068;28;20406;-84
2023/06/09 03:49:12;;;;;;;0.20;0.10;;;;;;;;;;5004629;28;20687;-83
2023/06/09 03:51:38;;;;;;;0.20;0.10;;;;;;;;;;5015872;28;20566;-84
2023/06/09 03:54:04;;;;;;;0.20;0.10;;;;;;;;;;5002495;28;20048;-82
2023/06/09 03:56:30;;;;;;;0.45;0.35;;;;;;;;;;5003617;28;20038;-84
2023/06/09 03:58:57;;;;;;;0.20;0.10;;;;;;;;;;5004768;28;20030;-86
2023/06/09 04:01:25;;;;;;;0.45;0.22;;;;;;;;;;5000246;28;20097;-83
2023/06/09 04:03:51;;;;;;;0.20;0.10;;;;;;;;;;5022157;28;20399;-82
2023/06/09 04:06:17;;;;;;;0.20;0.20;;;;;;;;;;5020826;28;20052;-82
2023/06/09 04:08:44;;;;;;;0.40;0.10;;;;;;;;;;5002266;28;20047;-82
2023/06/09 04:11:10;;;;;;;0.20;0.10;;;;;;;;;;5021571;28;20131;-79
2023/06/09 04:13:36;;;;;;;0.20;0.10;;;;;;;;;;5021338;28;20072;-83
2023/06/09 04:16:02;;;;;;;0.20;0.10;;;;;;;;;;5019802;28;20033;-82
2023/06/09 04:18:28;;;;;;;0.20;0.10;;;;;;;;;;5001424;28;20177;-83
2023/06/09 04:20:54;;;;;;;0.20;0.10;;;;;;;;;;5001789;28;20261;-83
2023/06/09 04:23:20;;;;;;;0.20;0.20;;;;;;;;;;5004484;28;20179;-83
2023/06/09 04:25:46;;;;;;;0.20;0.10;;;;;;;;;;5001341;28;20041;-83
2023/06/09 04:28:12;;;;;;;0.20;0.20;;;;;;;;;;4993905;28;20045;-81
2023/06/09 04:30:38;;;;;;;0.30;0.20;;;;;;;;;;4993551;28;20049;-83
2023/06/09 04:33:04;;;;;;;0.20;0.10;;;;;;;;;;5013299;28;20526;-83
2023/06/09 04:35:31;;;;;;;0.20;0.10;;;;;;;;;;5019708;28;20037;-85
2023/06/09 04:37:59;;;;;;;0.47;0.40;;;;;;;;;;5023458;28;20413;-83
2023/06/09 04:40:25;;;;;;;0.30;0.30;;;;;;;;;;5013709;28;20076;-84
2023/06/09 04:42:53;;;;;;;0.22;0.22;;;;;;;;;;5021454;28;20038;-84
2023/06/09 04:45:20;;;;;;;0.73;0.65;;;;;;;;;;5003518;28;20033;-82
2023/06/09 04:47:49;;;;;;;0.20;0.10;;;;;;;;;;5020482;28;20041;-81
2023/06/09 04:50:15;;;;;;;0.20;0.10;;;;;;;;;;5015192;28;20641;-84
2023/06/09 04:52:43;;;;;;;0.20;0.10;;;;;;;;;;5003883;28;20037;-81
2023/06/09 04:55:11;;;;;;;0.20;0.20;;;;;;;;;;4999456;28;20114;-84
2023/06/09 04:57:38;;;;;;;0.20;0.10;;;;;;;;;;5001917;28;20530;-79
2023/06/09 05:00:16;;;;;;;0.20;0.10;;;;;;;;;;5017562;28;20041;-81
2023/06/09 05:02:45;;;;;;;0.20;0.10;;;;;;;;;;5018747;28;22131;-83
2023/06/09 05:05:12;;;;;;;0.20;0.10;;;;;;;;;;5005425;28;20398;-80
2023/06/09 05:07:39;;;;;;;0.20;0.15;;;;;;;;;;5061556;22;20070;-79
2023/06/09 05:10:06;;;;;;;0.20;0.10;;;;;;;;;;5026381;28;20090;-81
2023/06/09 05:12:32;;;;;;;0.20;0.10;;;;;;;;;;5044358;28;21454;-77
2023/06/09 05:14:58;;;;;;;0.43;0.30;;;;;;;;;;5039006;28;20032;-81
2023/06/09 05:17:26;;;;;;;0.20;0.10;;;;;;;;;;5024589;28;20867;-81
2023/06/09 05:19:52;;;;;;;0.22;0.22;;;;;;;;;;5028237;28;20070;-79
2023/06/09 05:22:18;;;;;;;0.20;0.10;;;;;;;;;;5046442;28;20504;-80
2023/06/09 05:24:44;;;;;;;0.20;0.10;;;;;;;;;;5046653;28;20055;-80
2023/06/09 05:27:10;;;;;;;0.20;0.10;;;;;;;;;;5022050;28;20090;-80
2023/06/09 05:29:37;;;;;;;0.20;0.17;;;;;;;;;;5024519;28;20056;-82
2023/06/09 05:32:03;;;;;;;0.20;0.10;;;;;;;;;;5023605;28;20045;-80
2023/06/09 05:34:32;;;;;;;0.20;0.10;;;;;;;;;;5024570;28;20056;-82
2023/06/09 05:36:58;;;;;;;0.20;0.10;;;;;;;;;;5025861;28;20671;-77
2023/06/09 05:39:24;;;;;;;0.20;0.20;;;;;;;;;;5026917;28;20036;-81
2023/06/09 05:41:50;;;;;;;0.20;0.10;;;;;;;;;;5029088;28;20033;-79
2023/06/09 05:44:17;;;;;;;0.20;0.10;;;;;;;;;;5043238;28;20041;-78
2023/06/09 05:46:43;;;;;;;0.45;0.35;;;;;;;;;;5038875;28;20045;-78
2023/06/09 05:49:09;;;;;;;0.30;0.20;;;;;;;;;;5035271;28;20119;-82
2023/06/09 05:51:36;;;;;;;0.20;0.10;;;;;;;;;;5030612;28;20045;-81
2023/06/09 05:54:02;;;;;;;0.20;0.10;;;;;;;;;;5039336;28;20094;-81
2023/06/09 05:56:28;;;;;;;0.20;0.10;;;;;;;;;;5040544;28;20056;-80
2023/06/09 05:59:02;;;;;;;0.20;0.10;;;;;;;;;;5024326;28;20033;-79
2023/06/09 06:01:30;;;;;;;0.47;0.40;;;;;;;;;;5023344;28;20119;-79
2023/06/09 06:03:56;;;;;;;0.20;0.10;;;;;;;;;;5025929;28;20044;-83
2023/06/09 06:06:22;;;;;;;0.73;0.25;;;;;;;;;;5039360;28;20127;-79
2023/06/09 06:08:48;;;;;;;0.40;0.30;;;;;;;;;;5044379;28;20405;-80
2023/06/09 06:11:14;;;;;;;0.20;0.10;;;;;;;;;;5019159;28;20037;-79
2023/06/09 06:13:40;;;;;;;0.20;0.13;;;;;;;;;;5024678;28;20029;-79
2023/06/09 06:16:06;;;;;;;0.20;0.10;;;;;;;;;;5026570;28;20047;-79
2023/06/09 06:18:32;;;;;;;0.22;0.22;;;;;;;;;;5046648;28;20045;-81
2023/06/09 06:20:58;;;;;;;0.38;0.30;;;;;;;;;;5046688;28;20055;-81
2023/06/09 06:23:25;;;;;;;0.20;0.10;;;;;;;;;;5027402;28;20098;-81
2023/06/09 06:25:52;;;;;;;0.20;0.10;;;;;;;;;;5029171;28;21306;-79
2023/06/09 06:28:19;;;;;;;0.20;0.20;;;;;;;;;;5038206;28;20274;-77
2023/06/09 06:30:45;;;;;;;0.20;0.10;;;;;;;;;;5024199;28;20045;-80
2023/06/09 06:33:11;;;;;;;0.30;0.30;;;;;;;;;;5016437;28;20360;-78
2023/06/09 06:35:37;;;;;;;0.20;0.20;;;;;;;;;;5022550;28;20072;-81
2023/06/09 06:38:03;;;;;;;0.28;0.28;;;;;;;;;;5024156;28;20033;-81
2023/06/09 06:40:30;;;;;;;0.20;0.10;;;;;;;;;;5041402;28;20045;-80
2023/06/09 06:42:56;;;;;;;0.20;0.10;;;;;;;;;;5040878;28;20041;-81
2023/06/09 06:45:22;;;;;;;0.20;0.10;;;;;;;;;;5021584;28;20554;-79
2023/06/09 06:47:49;;;;;;;0.28;0.28;;;;;;;;;;5040511;28;21729;-78
2023/06/09 06:50:15;;;;;;;0.20;0.10;;;;;;;;;;5022819;28;20056;-82
2023/06/09 06:52:41;;;;;;;0.20;0.10;;;;;;;;;;5022232;28;20041;-78
2023/06/09 06:55:08;;;;;;;0.20;0.20;;;;;;;;;;5041437;28;20041;-83
2023/06/09 06:57:37;;;;;;;0.38;0.38;;;;;;;;;;5018225;28;20453;-78
2023/06/09 07:00:16;;;;;;;0.20;0.20;;;;;;;;;;5015783;28;20065;-79
2023/06/09 07:02:43;;;;;;;0.20;0.10;;;;;;;;;;5038284;28;20041;-81
2023/06/09 07:05:09;;;;;;;1.25;0.35;;;;;;;;;;5037097;28;20404;-79
2023/06/09 07:07:35;;;;;;;0.22;0.15;;;;;;;;;;5037342;28;20568;-78
2023/06/09 07:10:02;;;;;;;0.20;0.10;;;;;;;;;;5037561;28;20043;-80
2023/06/09 07:12:28;;;;;;;0.20;0.15;;;;;;;;;;5021238;28;20036;-84
2023/06/09 07:14:55;;;;;;;0.20;0.10;;;;;;;;;;5020039;28;20126;-78
2023/06/09 07:17:21;;;;;;;0.20;0.20;;;;;;;;;;5022133;28;20039;-78
2023/06/09 07:19:47;;;;;;;0.20;0.10;;;;;;;;;;5039295;28;20064;-78
2023/06/09 07:22:13;;;;;;;0.20;0.00;;;;;;;;;;5020159;28;20072;-80
2023/06/09 07:24:39;;;;;;;0.30;0.30;;;;;;;;;;5036542;28;20041;-79
2023/06/09 07:27:06;;;;;;;0.20;0.00;;;;;;;;;;5017850;28;20412;-79
2023/06/09 07:29:34;;;;;;;0.22;0.22;;;;;;;;;;5019966;28;20154;-81
2023/06/09 07:32:00;;;;;;;0.40;0.30;;;;;;;;;;5041673;28;20067;-79
2023/06/09 07:34:27;;;;;;;0.20;0.10;;;;;;;;;;5018990;28;20063;-79
2023/06/09 07:36:53;;;;;;;0.20;0.10;;;;;;;;;;5022255;28;20069;-78
2023/06/09 07:39:20;;;;;;;0.40;0.40;;;;;;;;;;5013673;28;20048;-78
2023/06/09 07:41:46;;;;;;;0.60;0.32;;;;;;;;;;5019887;28;20473;-78
2023/06/09 07:44:12;;;;;;;0.52;0.40;;;;;;;;;;5023362;28;20409;-78
2023/06/09 07:46:38;;;;;;;0.20;0.10;;;;;;;;;;5026523;28;20048;-85
2023/06/09 07:49:04;;;;;;;0.20;0.10;;;;;;;;;;5016270;28;20413;-78
2023/06/09 07:51:36;;;;;;;0.20;0.10;;;;;;;;;;5015250;28;20510;-80
2023/06/09 07:54:02;;;;;;;0.40;0.40;;;;;;;;;;5018575;28;20036;-78
2023/06/09 07:56:28;;;;;;;0.20;0.10;;;;;;;;;;5019759;28;20044;-79
2023/06/09 07:58:54;;;;;;;0.75;0.40;;;;;;;;;;5035164;28;20041;-80
2023/06/09 08:01:20;;;;;;;0.35;0.10;;;;;;;;;;5034178;28;20037;-78
2023/06/09 08:03:46;;;;;;;0.50;0.30;;;;;;;;;;5019364;28;20052;-77
2023/06/09 08:06:12;;;;;;;0.20;0.10;;;;;;;;;;5017791;28;20722;-79
2023/06/09 08:08:38;;;;;;;0.30;0.25;;;;;;;;;;5034929;28;21587;-80
2023/06/09 08:11:04;;;;;;;0.30;0.20;;;;;;;;;;5015261;28;20040;-81
2023/06/09 08:13:31;;;;;;;0.25;0.20;;;;;;;;;;5015946;28;20131;-81
2023/06/09 08:15:58;;;;;;;0.20;0.10;;;;;;;;;;5016355;28;20128;-78
2023/06/09 08:18:24;;;;;;;0.20;0.10;;;;;;;;;;5051820;28;20468;-82
2023/06/09 08:20:50;;;;;;;0.38;0.38;;;;;;;;;;5017886;28;20040;-79
2023/06/09 08:23:20;;;;;;;0.22;0.13;;;;;;;;;;5036806;28;20045;-78
2023/06/09 08:25:46;;;;;;;0.20;0.10;;;;;;;;;;5047488;28;20044;-79
2023/06/09 08:28:12;;;;;;;0.20;0.10;;;;;;;;;;5033420;28;20036;-80
2023/06/09 08:30:38;;;;;;;0.50;0.20;;;;;;;;;;5019266;28;20033;-79
2023/06/09 08:33:04;;;;;;;0.20;0.10;;;;;;;;;;5017369;28;20308;-78
2023/06/09 08:35:32;;;;;;;0.20;0.10;;;;;;;;;;5018226;28;20041;-81
2023/06/09 08:37:59;;;;;;;0.20;0.10;;;;;;;;;;5018449;28;20040;-77
2023/06/09 08:40:25;;;;;;;0.43;0.40;;;;;;;;;;5035293;28;20573;-78
2023/06/09 08:42:53;;;;;;;0.28;0.15;;;;;;;;;;5020053;28;20048;-81
2023/06/09 08:45:19;;;;;;;1.10;0.38;;;;;;;;;;5037397;28;20133;-80
2023/06/09 08:47:48;;;;;;;0.57;0.22;;;;;;;;;;5020020;28;20045;-80
2023/06/09 08:50:16;;;;;;;0.20;0.10;;;;;;;;;;5018283;28;20037;-80
2023/06/09 08:52:42;;;;;;;0.20;0.10;;;;;;;;;;5035433;28;20417;-82
2023/06/09 08:55:08;;;;;;;0.50;0.50;;;;;;;;;;5027863;28;20033;-83
2023/06/09 08:57:35;;;;;;;0.20;0.20;;;;;;;;;;5018416;28;20032;-81
2023/06/09 09:00:04;;;;;;;0.73;0.73;;;;;;;;;;5033672;28;20033;-78
2023/06/09 09:02:30;;;;;;;0.20;0.10;;;;;;;;;;5043191;28;20052;-81
2023/06/09 09:04:56;;;;;;;0.30;0.30;;;;;;;;;;5038663;28;20045;-81
2023/06/09 09:07:25;;;;;;;0.20;0.10;;;;;;;;;;5023677;28;20044;-78
2023/06/09 09:09:51;;;;;;;0.55;0.50;;;;;;;;;;5023642;28;20575;-81
2023/06/09 09:12:17;;;;;;;0.20;0.10;;;;;;;;;;5023599;28;20033;-81
2023/06/09 09:14:44;;;;;;;0.20;0.10;;;;;;;;;;5023672;28;20075;-79
2023/06/09 09:17:14;;;;;;;0.50;0.10;;;;;;;;;;5041128;28;20032;-78
2023/06/09 09:19:45;;;;;;;0.20;0.10;;;;;;;;;;5044136;28;20438;-79
2023/06/09 09:22:11;;;;;;;0.20;0.10;;;;;;;;;;5040373;28;20041;-80
2023/06/09 09:24:43;;;;;;;0.20;0.10;;;;;;;;;;5019386;28;20068;-80
2023/06/09 09:27:27;;;;;;;0.20;0.10;;;;;;;;;;5035955;28;20401;-79
2023/06/09 09:29:53;;;;;;;0.20;0.17;;;;;;;;;;5038742;28;20630;-80
2023/06/09 09:32:25;;;;;;;0.20;0.10;;;;;;;;;;5029132;28;20080;-80
2023/06/09 09:34:51;;;;;;;0.20;0.10;;;;;;;;;;5038621;28;20045;-81
2023/06/09 09:37:17;;;;;;;0.40;0.28;;;;;;;;;;5040100;28;20055;-82
2023/06/09 09:39:50;;;;;;;0.20;0.13;;;;;;;;;;5039831;28;20056;-79
2023/06/09 09:42:16;;;;;;;0.32;0.32;;;;;;;;;;5034013;28;20055;-80
2023/06/09 09:44:46;;;;;;;0.32;0.10;;;;;;;;;;5039232;28;20048;-79
2023/06/09 09:47:19;;;;;;;0.20;0.10;;;;;;;;;;5041794;28;20045;-78
2023/06/09 09:49:54;;;;;;;0.20;0.10;;;;;;;;;;5017257;28;20056;-80
2023/06/09 09:52:27;;;;;;;0.40;0.20;;;;;;;;;;5022267;28;20037;-81
2023/06/09 09:54:54;;;;;;;0.55;0.20;;;;;;;;;;5045113;28;20033;-82
2023/06/09 09:57:21;;;;;;;0.20;0.10;;;;;;;;;;5043840;28;20406;-81
2023/06/09 09:59:47;;;;;;;0.52;0.10;;;;;;;;;;5045169;28;20048;-79
2023/06/09 10:02:18;;;;;;;0.30;0.30;;;;;;;;;;5047160;28;20044;-80
2023/06/09 10:04:44;;;;;;;0.20;0.10;;;;;;;;;;5028033;28;20044;-82
2023/06/09 10:07:11;;;;;;;0.20;0.10;;;;;;;;;;5022986;28;20057;-84
2023/06/09 10:09:37;;;;;;;0.20;0.10;;;;;;;;;;5044440;28;20045;-79
2023/06/09 10:12:04;;;;;;;0.28;0.28;;;;;;;;;;5037237;28;20405;-82
2023/06/09 10:14:30;;;;;;;0.20;0.10;;;;;;;;;;5020122;28;20041;-80
2023/06/09 10:16:57;;;;;;;0.30;0.10;;;;;;;;;;5034947;28;20398;-81
2023/06/09 10:19:24;;;;;;;0.20;0.10;;;;;;;;;;5039750;28;20094;-80
2023/06/09 10:21:53;;;;;;;0.20;0.10;;;;;;;;;;5047620;28;20074;-83
2023/06/09 10:24:21;;;;;;;0.20;0.10;;;;;;;;;;5042362;28;20045;-82
2023/06/09 10:26:49;;;;;;;0.50;0.38;;;;;;;;;;5040638;28;20513;-83
2023/06/09 10:29:15;;;;;;;0.30;0.30;;;;;;;;;;5019778;28;20041;-79
2023/06/09 10:31:43;;;;;;;0.20;0.10;;;;;;;;;;5028986;28;20056;-80
2023/06/09 10:34:10;;;;;;;0.20;0.20;;;;;;;;;;5045844;28;20040;-81
2023/06/09 10:36:41;;;;;;;0.35;0.32;;;;;;;;;;5019390;28;20091;-80
2023/06/09 10:39:20;;;;;;;0.35;0.30;;;;;;;;;;5040581;28;20033;-80
2023/06/09 10:41:59;;;;;;;0.40;0.40;;;;;;;;;;5039378;28;20073;-80
2023/06/09 10:44:36;;;;;;;1.23;0.73;;;;;;;;;;5038936;28;20045;-81
2023/06/09 10:47:02;;;;;;;0.40;0.35;;;;;;;;;;5036402;28;20104;-82
2023/06/09 10:49:39;;;;;;;0.25;0.20;;;;;;;;;;5021082;28;20059;-79
2023/06/09 10:52:06;;;;;;;0.22;0.22;;;;;;;;;;5034729;28;20844;-83
2023/06/09 10:54:35;;;;;;;0.32;0.30;;;;;;;;;;5032371;28;20029;-80
2023/06/09 10:57:03;;;;;;;0.20;0.10;;;;;;;;;;5020169;28;20504;-81
2023/06/09 10:59:32;;;;;;;0.20;0.10;;;;;;;;;;5037273;28;20327;-80
2023/06/09 11:02:04;;;;;;;0.30;0.30;;;;;;;;;;5020675;28;20040;-78
2023/06/09 11:04:45;;;;;;;0.20;0.10;;;;;;;;;;5030613;28;20250;-86
2023/06/09 11:07:12;;;;;;;0.20;0.20;;;;;;;;;;5044932;23;20319;-83
2023/06/09 11:09:39;;;;;;;0.30;0.20;;;;;;;;;;5058344;28;20044;-83
2023/06/09 11:12:05;;;;;;;0.20;0.10;;;;;;;;;;5046522;28;20029;-83
2023/06/09 11:14:47;;;;;;;0.47;0.35;;;;;;;;;;5062730;28;20044;-82
2023/06/09 11:17:16;;;;;;;0.30;0.22;;;;;;;;;;5060061;28;20516;-81
2023/06/09 11:19:42;;;;;;;0.50;0.28;;;;;;;;;;5046540;28;20044;-82
2023/06/09 11:22:09;;;;;;;0.47;0.30;;;;;;;;;;5047783;28;21849;-83
2023/06/09 11:24:55;;;;;;;0.20;0.10;;;;;;;;;;5059252;28;20040;-82
2023/06/09 11:27:24;;;;;;;0.30;0.22;;;;;;;;;;5043228;28;20036;-83
2023/06/09 11:30:26;;;;;;;0.20;0.15;;;;;;;;;;5036620;28;20671;-82
2023/06/09 11:32:53;;;;;;;0.38;0.20;;;;;;;;;;4963490;28;20045;-84
2023/06/09 11:35:31;;;;;;;0.25;0.22;;;;;;;;;;5058649;28;20408;-80
2023/06/09 11:38:05;;;;;;;0.20;0.15;;;;;;;;;;5063688;28;20397;-81
2023/06/09 11:40:32;;;;;;;0.30;0.25;;;;;;;;;;5064048;28;20033;-82
2023/06/09 11:42:59;;;;;;;0.20;0.20;;;;;;;;;;5050780;28;20573;-80
2023/06/09 11:45:25;;;;;;;0.20;0.10;;;;;;;;;;5056728;28;20067;-83
2023/06/09 11:47:56;;;;;;;1.15;0.28;;;;;;;;;;5057456;28;20037;-81
2023/06/09 11:50:25;;;;;;;0.20;0.20;;;;;;;;;;5041361;28;20501;-84
2023/06/09 11:53:05;;;;;;;0.55;0.45;;;;;;;;;;5062048;28;20037;-81
2023/06/09 11:55:31;;;;;;;1.95;0.45;;;;;;;;;;5059128;28;20067;-85
2023/06/09 11:57:57;;;;;;;0.25;0.25;;;;;;;;;;5054579;28;20405;-81
2023/06/09 12:00:27;;;;;;;0.35;0.35;;;;;;;;;;5055884;28;20068;-80
2023/06/09 12:02:53;;;;;;;0.20;0.20;;;;;;;;;;5054241;28;20285;-83
2023/06/09 12:05:21;;;;;;;0.60;0.40;;;;;;;;;;5054723;28;20044;-80
2023/06/09 12:07:47;;;;;;;0.52;0.50;;;;;;;;;;5038959;28;20524;-86
2023/06/09 12:10:17;;;;;;;0.73;0.30;;;;;;;;;;5036525;28;21044;-85
2023/06/09 12:12:46;;;;;;;0.30;0.20;;;;;;;;;;5040436;28;20135;-79
2023/06/09 12:15:13;;;;;;;0.20;0.17;;;;;;;;;;5050985;28;20050;-83
2023/06/09 12:17:40;;;;;;;0.30;0.30;;;;;;;;;;5034264;28;20036;-81
2023/06/09 12:20:25;;;;;;;0.30;0.30;;;;;;;;;;5039705;28;20154;-83
2023/06/09 12:22:52;;;;;;;0.30;0.30;;;;;;;;;;5059775;28;20040;-84
2023/06/09 12:25:27;;;;;;;0.35;0.20;;;;;;;;;;5060909;28;20470;-82
2023/06/09 12:27:54;;;;;;;0.20;0.20;;;;;;;;;;5058851;28;20128;-81
2023/06/09 12:30:34;;;;;;;0.22;0.20;;;;;;;;;;5063579;28;20045;-81
2023/06/09 12:33:10;;;;;;;0.20;0.17;;;;;;;;;;5055128;28;20049;-87
2023/06/09 12:35:43;;;;;;;0.20;0.20;;;;;;;;;;5038468;28;20044;-83
2023/06/09 12:38:19;;;;;;;0.80;0.32;;;;;;;;;;5033552;28;20032;-86
2023/06/09 12:40:46;;;;;;;0.20;0.10;;;;;;;;;;5051222;28;20028;-82
2023/06/09 12:43:14;;;;;;;0.40;0.20;;;;;;;;;;5042278;28;20515;-80
2023/06/09 12:45:43;;;;;;;0.30;0.20;;;;;;;;;;5040110;28;20053;-83
2023/06/09 12:48:09;;;;;;;0.52;0.30;;;;;;;;;;5054299;28;20044;-84
2023/06/09 12:50:36;;;;;;;0.22;0.22;;;;;;;;;;5040944;28;20040;-78
2023/06/09 12:53:02;;;;;;;0.20;0.10;;;;;;;;;;5056126;28;20048;-83
2023/06/09 12:55:28;;;;;;;0.20;0.20;;;;;;;;;;5036923;28;20408;-82
2023/06/09 12:57:54;;;;;;;0.20;0.20;;;;;;;;;;5051870;28;20039;-81
2023/06/09 13:00:21;;;;;;;0.32;0.25;;;;;;;;;;5054983;28;20040;-82
2023/06/09 13:02:47;;;;;;;0.43;0.43;;;;;;;;;;5051626;28;20090;-81
2023/06/09 13:05:13;;;;;;;0.20;0.20;;;;;;;;;;5059103;28;20095;-84
2023/06/09 13:07:39;;;;;;;0.20;0.10;;;;;;;;;;5039338;28;20075;-84
2023/06/09 13:10:06;;;;;;;0.30;0.20;;;;;;;;;;5036434;28;20066;-83
2023/06/09 13:12:32;;;;;;;0.30;0.28;;;;;;;;;;5054708;28;20036;-84
2023/06/09 13:14:58;;;;;;;0.25;0.25;;;;;;;;;;5058499;28;20458;-81
2023/06/09 13:17:24;;;;;;;0.22;0.20;;;;;;;;;;5051851;28;20389;-82
2023/06/09 13:19:50;;;;;;;0.30;0.30;;;;;;;;;;5055405;28;20036;-81
2023/06/09 13:22:16;;;;;;;0.28;0.10;;;;;;;;;;5058316;28;20033;-83
2023/06/09 13:24:42;;;;;;;0.25;0.20;;;;;;;;;;5048222;28;20051;-83
2023/06/09 13:27:08;;;;;;;0.20;0.10;;;;;;;;;;5048697;28;20427;-83
2023/06/09 13:29:34;;;;;;;0.30;0.30;;;;;;;;;;5064495;28;20065;-79
2023/06/09 13:32:00;;;;;;;0.20;0.17;;;;;;;;;;5062173;28;20097;-82
2023/06/09 13:34:26;;;;;;;0.28;0.17;;;;;;;;;;5043923;28;20464;-80
2023/06/09 13:36:52;;;;;;;0.85;0.47;;;;;;;;;;5042812;28;20043;-83
2023/06/09 13:39:18;;;;;;;0.40;0.38;;;;;;;;;;5045042;28;20040;-81
2023/06/09 13:41:44;;;;;;;0.40;0.20;;;;;;;;;;5045800;28;20048;-79
2023/06/09 13:44:11;;;;;;;0.20;0.20;;;;;;;;;;5061197;28;20436;-84
2023/06/09 13:46:37;;;;;;;0.20;0.15;;;;;;;;;;5041320;28;20102;-84
2023/06/09 13:49:03;;;;;;;0.50;0.20;;;;;;;;;;5056510;28;20048;-80
2023/06/09 13:51:30;;;;;;;0.30;0.20;;;;;;;;;;5059603;28;20047;-81
2023/06/09 13:53:56;;;;;;;0.35;0.28;;;;;;;;;;5061706;28;20363;-81
2023/06/09 13:56:22;;;;;;;0.20;0.10;;;;;;;;;;5058639;28;20047;-80
2023/06/09 13:58:48;;;;;;;0.30;0.30;;;;;;;;;;5061350;28;21204;-82
2023/06/09 14:01:15;;;;;;;0.55;0.40;;;;;;;;;;5059586;28;20029;-80
2023/06/09 14:03:41;;;;;;;0.20;0.10;;;;;;;;;;5044032;28;20037;-80
2023/06/09 14:06:07;;;;;;;0.28;0.20;;;;;;;;;;5065229;28;20044;-79
2023/06/09 14:08:33;;;;;;;0.45;0.30;;;;;;;;;;5059524;28;20092;-81
2023/06/09 14:10:59;;;;;;;0.63;0.38;;;;;;;;;;5046712;28;20089;-81
2023/06/09 14:13:25;;;;;;;0.47;0.40;;;;;;;;;;5058263;28;20049;-82
2023/06/09 14:15:51;;;;;;;0.22;0.22;;;;;;;;;;5061507;28;20036;-81
2023/06/09 14:18:18;;;;;;;0.20;0.20;;;;;;;;;;5060412;28;20443;-83
2023/06/09 14:20:44;;;;;;;1.10;0.57;;;;;;;;;;5058727;28;20658;-80
2023/06/09 14:23:11;;;;;;;0.28;0.28;;;;;;;;;;5061540;28;20047;-82
2023/06/09 14:25:37;;;;;;;0.40;0.30;;;;;;;;;;5065722;28;20040;-78
2023/06/09 14:28:03;;;;;;;0.30;0.30;;;;;;;;;;5063738;28;20040;-80
2023/06/09 14:30:29;;;;;;;0.28;0.13;;;;;;;;;;5062958;28;20040;-83
2023/06/09 14:32:56;;;;;;;0.20;0.20;;;;;;;;;;5044517;28;20120;-84
2023/06/09 14:35:23;;;;;;;0.30;0.30;;;;;;;;;;5059956;28;20029;-79
2023/06/09 14:38:02;;;;;;;0.30;0.30;;;;;;;;;;5061494;28;20044;-82
2023/06/09 14:40:29;;;;;;;0.52;0.52;;;;;;;;;;5061638;28;20028;-80
2023/06/09 14:42:55;;;;;;;0.43;0.30;;;;;;;;;;5043237;28;20041;-81
2023/06/09 14:45:23;;;;;;;0.47;0.28;;;;;;;;;;5041137;28;20050;-79
2023/06/09 14:47:56;;;;;;;0.38;0.30;;;;;;;;;;5040076;28;20113;-80